Time;durP1;ratioP1;P1;durP2;ratioP2;P2;SDS_P1;SDS_P2;PMS_P1;PMS_P2;Temp;Humidity;BMP_temperature;BMP_pressure;BME280_temperature;BME280_humidity;BME280_pressure;Samples;Min_cycle;Max_cycle;Signal;HPM_P1;HPM_P2
2021/11/11 00:04:09;;;;;;;28.53;25.53;;;6.70;99.90;;;;;;10456089;28;20291;-81
2021/11/11 00:09:14;;;;;;;115.07;54.00;;;6.70;99.90;;;;;;10453341;28;20201;-81
2021/11/11 00:14:18;;;;;;;24.00;21.60;;;6.70;99.90;;;;;;10439061;28;20219;-81
2021/11/11 00:19:20;;;;;;;24.97;22.00;;;6.70;99.90;;;;;;10464873;28;20197;-81
2021/11/11 00:24:22;;;;;;;22.80;20.50;;;6.60;99.90;;;;;;10458198;28;20757;-81
2021/11/11 00:29:25;;;;;;;24.37;21.77;;;6.60;99.90;;;;;;10447586;28;20212;-81
2021/11/11 00:34:28;;;;;;;23.57;20.53;;;6.60;99.90;;;;;;10457839;28;20255;-81
2021/11/11 00:39:37;;;;;;;23.53;21.13;;;6.60;99.90;;;;;;10428940;28;20205;-81
2021/11/11 00:44:43;;;;;;;24.50;21.20;;;6.50;99.90;;;;;;10464469;28;20221;-81
2021/11/11 00:49:45;;;;;;;22.73;20.07;;;6.60;99.90;;;;;;10466116;28;20278;-81
2021/11/11 00:54:47;;;;;;;22.73;20.53;;;6.60;99.90;;;;;;10444685;28;20222;-81
2021/11/11 01:00:05;;;;;;;23.23;20.87;;;6.50;99.90;;;;;;10436345;28;20197;-81
2021/11/11 01:05:09;;;;;;;22.33;20.07;;;6.50;99.90;;;;;;10476803;28;20594;-81
2021/11/11 01:10:15;;;;;;;22.00;19.70;;;6.50;99.90;;;;;;10448094;28;20806;-81
2021/11/11 01:15:21;;;;;;;23.93;20.33;;;6.50;99.90;;;;;;10441120;28;20272;-81
2021/11/11 01:20:23;;;;;;;24.03;21.63;;;6.50;99.90;;;;;;10440936;28;20212;-81
2021/11/11 01:25:29;;;;;;;25.70;23.10;;;6.40;99.90;;;;;;10453808;28;20639;-81
2021/11/11 01:30:38;;;;;;;23.83;21.30;;;6.30;99.90;;;;;;10441531;28;20208;-81
2021/11/11 01:35:49;;;;;;;24.33;21.67;;;6.30;99.90;;;;;;10442736;28;20303;-81
2021/11/11 01:40:58;;;;;;;23.00;20.70;;;6.30;99.90;;;;;;10429681;28;20295;-81
2021/11/11 01:46:07;;;;;;;24.53;22.03;;;6.30;99.90;;;;;;10433015;28;20228;-81
2021/11/11 01:51:09;;;;;;;23.33;21.07;;;6.30;99.90;;;;;;10444922;28;20198;-81
2021/11/11 01:56:23;;;;;;;21.90;19.57;;;6.40;99.90;;;;;;10435994;28;20689;-82
2021/11/11 02:01:28;;;;;;;23.17;20.73;;;6.40;99.90;;;;;;10464509;28;20541;-81
2021/11/11 02:06:30;;;;;;;21.60;19.13;;;6.40;99.90;;;;;;10457743;28;20229;-81
2021/11/11 02:11:37;;;;;;;23.10;20.80;;;6.30;99.90;;;;;;10436864;28;20205;-81
2021/11/11 02:16:45;;;;;;;22.90;20.60;;;6.20;99.90;;;;;;10446407;28;20790;-81
2021/11/11 02:21:57;;;;;;;23.23;20.83;;;6.20;99.90;;;;;;10458962;28;20772;-81
2021/11/11 02:27:09;;;;;;;22.17;20.00;;;6.10;99.90;;;;;;10465146;28;20247;-81
2021/11/11 02:32:12;;;;;;;23.47;19.63;;;6.20;99.90;;;;;;10458816;28;20197;-81
2021/11/11 02:37:20;;;;;;;22.57;20.00;;;6.10;99.90;;;;;;10453939;28;20217;-81
2021/11/11 02:42:25;;;;;;;22.27;20.13;;;6.10;99.90;;;;;;10464371;28;20689;-81
2021/11/11 02:47:29;;;;;;;23.23;20.87;;;6.10;99.90;;;;;;10482298;28;20201;-81
2021/11/11 02:52:33;;;;;;;23.20;20.87;;;6.10;99.90;;;;;;10462110;28;20232;-81
2021/11/11 02:57:38;;;;;;;22.47;20.20;;;6.10;99.90;;;;;;10466034;28;20252;-81
2021/11/11 03:02:44;;;;;;;23.03;20.63;;;6.20;99.90;;;;;;10435509;28;20218;-81
2021/11/11 03:07:49;;;;;;;23.07;20.67;;;6.20;99.90;;;;;;10458203;28;20605;-81
2021/11/11 03:12:53;;;;;;;22.03;19.87;;;6.20;99.90;;;;;;10440611;28;20220;-81
2021/11/11 03:17:56;;;;;;;23.00;19.17;;;6.20;99.90;;;;;;10445076;28;20221;-81
2021/11/11 03:22:59;;;;;;;21.27;19.13;;;6.20;99.90;;;;;;10441149;28;20247;-81
2021/11/11 03:28:05;;;;;;;23.17;20.97;;;6.20;99.90;;;;;;10441255;28;20691;-81
2021/11/11 03:33:09;;;;;;;21.70;19.50;;;6.00;99.90;;;;;;10440769;28;20600;-81
2021/11/11 03:38:21;;;;;;;21.03;18.90;;;6.00;99.90;;;;;;10436260;28;20221;-81
2021/11/11 03:43:24;;;;;;;23.40;21.20;;;6.00;99.90;;;;;;10436863;28;20705;-81
2021/11/11 03:48:33;;;;;;;24.87;20.80;;;6.00;99.90;;;;;;10442182;28;20211;-81
2021/11/11 03:53:40;;;;;;;23.50;21.03;;;6.00;99.90;;;;;;10452377;28;20225;-81
2021/11/11 03:58:46;;;;;;;23.67;20.93;;;6.00;99.90;;;;;;10440333;28;20216;-81
2021/11/11 04:03:49;;;;;;;23.40;20.10;;;6.10;99.90;;;;;;10454050;28;20312;-81
2021/11/11 04:08:54;;;;;;;21.87;19.67;;;6.10;99.90;;;;;;10439117;28;20204;-81
2021/11/11 04:14:01;;;;;;;21.83;19.70;;;6.00;99.90;;;;;;10438328;28;20678;-81
2021/11/11 04:19:04;;;;;;;20.73;18.63;;;6.00;99.90;;;;;;10466577;28;20199;-81
2021/11/11 04:24:09;;;;;;;22.53;19.70;;;6.00;99.90;;;;;;10459780;28;20213;-81
2021/11/11 04:29:15;;;;;;;22.10;20.00;;;6.00;99.90;;;;;;10487607;28;20259;-81
2021/11/11 04:34:19;;;;;;;21.77;19.37;;;5.90;99.90;;;;;;10458773;28;20217;-81
2021/11/11 04:39:42;;;;;;;20.90;18.80;;;6.00;99.90;;;;;;10459246;28;20193;-81
2021/11/11 04:44:59;;;;;;;22.17;19.90;;;5.90;99.90;;;;;;10458384;28;20213;-82
2021/11/11 04:50:26;;;;;;;20.83;18.83;;;5.90;99.90;;;;;;10441100;28;20205;-82
2021/11/11 05:01:13;;;;;;;23.77;21.40;;;5.90;99.90;;;;;;10430424;28;20204;-81
2021/11/11 05:06:17;;;;;;;24.27;21.67;;;6.00;99.90;;;;;;10441180;28;20319;-81
2021/11/11 05:11:22;;;;;;;24.57;22.00;;;6.00;99.90;;;;;;10462311;28;20201;-81
2021/11/11 05:16:25;;;;;;;23.20;21.00;;;6.00;99.90;;;;;;10458282;28;20232;-81
2021/11/11 05:21:27;;;;;;;22.20;19.90;;;6.00;99.90;;;;;;10456176;28;20208;-81
2021/11/11 05:26:32;;;;;;;21.33;19.30;;;6.00;99.90;;;;;;10431506;28;20227;-83
2021/11/11 05:31:37;;;;;;;27.03;24.13;;;6.00;99.90;;;;;;10404962;28;20233;-83
2021/11/11 05:36:40;;;;;;;27.87;24.97;;;6.00;99.90;;;;;;10409784;28;20273;-82
2021/11/11 05:41:44;;;;;;;26.50;23.97;;;6.00;99.90;;;;;;10454363;28;20235;-83
2021/11/11 05:46:46;;;;;;;22.57;20.20;;;6.00;99.90;;;;;;10430654;28;20308;-83
2021/11/11 05:51:49;;;;;;;23.60;21.30;;;6.00;99.90;;;;;;10434410;28;20305;-83
2021/11/11 05:56:53;;;;;;;26.50;23.90;;;5.90;99.90;;;;;;10452885;28;20221;-82
2021/11/11 06:01:55;;;;;;;29.60;26.60;;;5.80;99.90;;;;;;10452427;28;20201;-84
2021/11/11 06:06:57;;;;;;;28.07;25.17;;;5.60;99.90;;;;;;10456351;28;20602;-82
2021/11/11 06:12:01;;;;;;;27.57;24.87;;;5.60;99.90;;;;;;10456887;28;20197;-82
2021/11/11 06:17:06;;;;;;;67.40;51.80;;;5.60;99.90;;;;;;10445598;28;20247;-82
2021/11/11 06:22:08;;;;;;;33.90;30.20;;;5.70;99.90;;;;;;10466736;28;20239;-82
2021/11/11 06:27:12;;;;;;;40.63;32.20;;;5.70;99.90;;;;;;10454704;28;20204;-81
2021/11/11 06:32:15;;;;;;;41.07;31.97;;;5.70;99.90;;;;;;10439654;28;20279;-81
2021/11/11 06:37:18;;;;;;;31.70;27.90;;;5.70;99.90;;;;;;10446689;28;20233;-82
2021/11/11 06:42:22;;;;;;;35.43;30.23;;;5.70;99.90;;;;;;10446074;28;20608;-81
2021/11/11 06:47:24;;;;;;;33.90;28.00;;;5.70;99.90;;;;;;10462942;28;20292;-81
2021/11/11 06:52:26;;;;;;;27.50;24.70;;;5.70;99.90;;;;;;10456878;28;20228;-81
2021/11/11 06:57:30;;;;;;;30.70;27.57;;;5.70;99.90;;;;;;10443299;28;20229;-81
2021/11/11 07:02:39;;;;;;;24.90;22.40;;;5.70;99.90;;;;;;10445160;28;20581;-82
2021/11/11 07:07:43;;;;;;;25.40;22.90;;;5.80;99.90;;;;;;10434600;28;20692;-81
2021/11/11 07:12:46;;;;;;;24.33;21.83;;;5.80;99.90;;;;;;10461201;28;20249;-81
2021/11/11 07:17:48;;;;;;;26.80;24.10;;;5.80;99.90;;;;;;10482386;28;20308;-81
2021/11/11 07:22:54;;;;;;;26.60;23.93;;;5.80;99.90;;;;;;10444718;28;20308;-81
2021/11/11 07:27:58;;;;;;;25.90;22.90;;;5.90;99.90;;;;;;10462543;28;20201;-81
2021/11/11 07:33:01;;;;;;;23.73;21.20;;;5.90;99.90;;;;;;10461245;28;20217;-81
2021/11/11 07:38:04;;;;;;;26.10;23.40;;;6.00;99.90;;;;;;10460016;28;20221;-82
2021/11/11 07:43:07;;;;;;;26.87;24.07;;;6.00;99.90;;;;;;10486242;28;20228;-82
2021/11/11 07:48:12;;;;;;;26.23;23.40;;;6.10;99.90;;;;;;10446243;28;20239;-82
2021/11/11 07:53:14;;;;;;;24.87;22.37;;;6.20;99.90;;;;;;10459261;28;20267;-82
2021/11/11 07:58:18;;;;;;;25.40;22.73;;;6.20;99.90;;;;;;10462077;28;20221;-82
2021/11/11 08:03:20;;;;;;;26.03;23.43;;;6.30;99.90;;;;;;10464477;28;20253;-82
2021/11/11 08:08:22;;;;;;;27.17;24.20;;;6.30;99.90;;;;;;10486745;28;20228;-82
2021/11/11 08:13:26;;;;;;;28.77;22.80;;;6.30;99.90;;;;;;10464994;28;20300;-82
2021/11/11 08:18:28;;;;;;;25.60;23.10;;;6.30;99.90;;;;;;10445928;28;20225;-82
2021/11/11 08:23:31;;;;;;;28.33;25.60;;;6.40;99.90;;;;;;10446343;28;20716;-82
2021/11/11 08:28:36;;;;;;;26.90;24.33;;;6.40;99.90;;;;;;10454589;28;20204;-81
2021/11/11 08:33:38;;;;;;;26.10;23.30;;;6.50;99.90;;;;;;10441174;28;20315;-82
2021/11/11 08:38:40;;;;;;;26.50;23.80;;;6.60;99.90;;;;;;10458530;28;20282;-82
2021/11/11 08:43:43;;;;;;;29.30;26.30;;;6.70;99.90;;;;;;10442666;28;20705;-82
2021/11/11 08:48:46;;;;;;;27.33;24.47;;;6.80;99.90;;;;;;10457480;28;20212;-82
2021/11/11 08:53:48;;;;;;;28.93;25.90;;;6.90;99.90;;;;;;10455492;28;20241;-82
2021/11/11 08:58:52;;;;;;;27.50;24.87;;;7.00;99.90;;;;;;10442196;28;20244;-82
2021/11/11 09:03:56;;;;;;;28.30;25.20;;;7.10;99.90;;;;;;10439348;28;20259;-82
2021/11/11 09:08:58;;;;;;;27.07;24.30;;;7.20;99.90;;;;;;10440003;28;20235;-82
2021/11/11 09:14:02;;;;;;;30.30;24.20;;;7.30;99.90;;;;;;10459978;28;20221;-82
2021/11/11 09:19:05;;;;;;;26.37;23.67;;;7.40;99.90;;;;;;10442387;28;20311;-82
2021/11/11 09:24:09;;;;;;;26.40;23.37;;;7.40;99.90;;;;;;10459687;28;20319;-82
2021/11/11 09:29:12;;;;;;;27.27;23.70;;;7.50;99.90;;;;;;10458963;28;20295;-82
2021/11/11 09:34:14;;;;;;;25.90;23.20;;;7.60;99.90;;;;;;10454883;28;20274;-82
2021/11/11 09:39:16;;;;;;;27.80;23.80;;;7.60;99.90;;;;;;10455028;28;20221;-82
2021/11/11 09:44:21;;;;;;;27.13;24.10;;;7.70;99.90;;;;;;10458203;28;20574;-82
2021/11/11 09:49:24;;;;;;;24.23;21.87;;;7.80;99.90;;;;;;10464368;28;20492;-82
2021/11/11 09:59:44;;;;;;;25.87;23.47;;;7.90;99.90;;;;;;10409964;28;20291;-82
2021/11/11 10:04:46;;;;;;;25.80;23.20;;;8.00;99.90;;;;;;10445578;28;20233;-82
2021/11/11 10:09:48;;;;;;;27.00;24.37;;;8.00;99.90;;;;;;10461772;28;20201;-82
2021/11/11 10:14:52;;;;;;;30.37;24.70;;;8.10;99.90;;;;;;10463295;28;20229;-82
2021/11/11 10:19:56;;;;;;;26.40;23.70;;;8.20;99.90;;;;;;10457158;28;20705;-81
2021/11/11 10:25:02;;;;;;;27.97;24.80;;;8.20;99.90;;;;;;10440593;28;20229;-82
2021/11/11 10:30:08;;;;;;;28.43;25.43;;;8.30;99.90;;;;;;10440370;28;20277;-81
2021/11/11 10:35:13;;;;;;;27.70;24.30;;;8.30;99.90;;;;;;10436923;28;20312;-82
2021/11/11 10:40:18;;;;;;;27.57;24.53;;;8.30;99.90;;;;;;10408365;28;20205;-82
2021/11/11 10:45:23;;;;;;;29.43;26.50;;;8.40;99.90;;;;;;10436604;28;20229;-82
2021/11/11 10:50:29;;;;;;;32.00;28.70;;;8.50;99.90;;;;;;10456431;28;20212;-82
2021/11/11 10:55:32;;;;;;;27.57;24.77;;;8.50;99.90;;;;;;10459568;28;20227;-82
2021/11/11 11:00:43;;;;;;;30.37;27.27;;;8.60;99.90;;;;;;10470565;28;20236;-82
2021/11/11 11:05:50;;;;;;;28.47;25.60;;;8.60;99.90;;;;;;10442481;28;20233;-81
2021/11/11 11:10:58;;;;;;;30.50;27.20;;;8.60;99.90;;;;;;10460106;28;20196;-81
2021/11/11 11:16:03;;;;;;;30.90;27.90;;;8.60;99.90;;;;;;10460507;28;20640;-82
2021/11/11 11:21:08;;;;;;;30.70;27.50;;;8.70;99.90;;;;;;10458725;28;20197;-82
2021/11/11 11:26:15;;;;;;;29.27;26.37;;;8.80;99.90;;;;;;10460390;28;20220;-82
2021/11/11 11:31:32;;;;;;;30.63;27.63;;;8.80;99.90;;;;;;10456098;28;20205;-82
2021/11/11 11:36:39;;;;;;;28.93;26.20;;;8.90;99.90;;;;;;10455412;28;20233;-82
2021/11/11 11:41:44;;;;;;;28.80;26.00;;;8.90;99.90;;;;;;10458144;28;20201;-82
2021/11/11 11:46:55;;;;;;;28.73;25.73;;;9.00;99.90;;;;;;10464528;28;20300;-82
2021/11/11 11:51:57;;;;;;;27.10;24.50;;;9.10;99.90;;;;;;10441823;28;20216;-82
2021/11/11 11:57:03;;;;;;;27.77;24.97;;;9.00;99.90;;;;;;10458708;28;20681;-82
2021/11/11 12:02:21;;;;;;;29.33;26.30;;;9.10;99.90;;;;;;10454629;28;20687;-82
2021/11/11 12:07:34;;;;;;;24.93;22.50;;;9.10;99.90;;;;;;10474189;22;20462;-84
2021/11/11 12:29:23;;;;;;;27.80;25.07;;;9.30;99.90;;;;;;10416690;28;20556;-85
2021/11/11 12:39:52;;;;;;;27.10;24.70;;;9.30;99.90;;;;;;10420302;28;20252;-84
2021/11/11 12:45:21;;;;;;;27.47;24.87;;;9.30;99.90;;;;;;10420319;28;20284;-84
2021/11/11 12:50:42;;;;;;;26.50;24.00;;;9.30;99.90;;;;;;10393177;28;20206;-84
2021/11/11 12:55:47;;;;;;;27.57;24.97;;;9.30;99.90;;;;;;10421697;28;20225;-85
2021/11/11 13:00:52;;;;;;;28.03;25.37;;;9.30;99.90;;;;;;10414060;28;20732;-84
2021/11/11 13:05:58;;;;;;;27.43;24.50;;;9.40;99.90;;;;;;10413355;28;20222;-84
2021/11/11 13:11:04;;;;;;;28.00;24.60;;;9.40;99.90;;;;;;10409540;28;20190;-84
2021/11/11 13:16:14;;;;;;;31.03;28.00;;;9.40;99.90;;;;;;10391364;28;20264;-83
2021/11/11 13:21:22;;;;;;;29.10;26.20;;;9.40;99.90;;;;;;10388291;28;20618;-84
2021/11/11 13:26:52;;;;;;;29.27;26.43;;;9.40;99.90;;;;;;10418330;28;20678;-84
2021/11/11 15:20:47;;;;;;;32.70;29.40;;;8.80;99.90;;;;;;10392030;28;20221;-84
2021/11/11 16:20:05;;;;;;;38.27;34.47;;;8.10;99.90;;;;;;10412504;28;20225;-84
2021/11/11 16:25:12;;;;;;;40.20;36.10;;;8.10;99.90;;;;;;10412995;28;20226;-81
2021/11/11 16:30:18;;;;;;;37.87;33.93;;;8.00;99.90;;;;;;10412592;28;20622;-84
2021/11/11 16:35:24;;;;;;;38.00;34.20;;;8.00;99.90;;;;;;10411304;28;20517;-81
2021/11/11 16:40:28;;;;;;;43.20;38.50;;;8.00;99.90;;;;;;10428771;28;20253;-84
2021/11/11 16:45:30;;;;;;;38.33;34.43;;;8.00;99.90;;;;;;10410313;28;20225;-82
2021/11/11 16:50:35;;;;;;;39.23;35.23;;;8.00;99.90;;;;;;10411151;28;20281;-82
2021/11/11 16:55:40;;;;;;;42.67;36.43;;;8.00;99.90;;;;;;10410501;28;20657;-81
2021/11/11 17:00:42;;;;;;;41.40;37.00;;;7.90;99.90;;;;;;10412655;28;20225;-83
2021/11/11 17:05:46;;;;;;;40.93;36.73;;;7.90;99.90;;;;;;10411776;28;20236;-82
2021/11/11 17:10:49;;;;;;;40.07;35.97;;;7.90;99.90;;;;;;10411834;28;20637;-82
2021/11/11 17:15:53;;;;;;;43.60;38.90;;;7.90;99.90;;;;;;10411426;28;20213;-82
2021/11/11 17:20:57;;;;;;;40.90;36.63;;;7.90;99.90;;;;;;10395180;28;20678;-81
2021/11/11 17:31:24;;;;;;;38.27;34.27;;;7.90;99.90;;;;;;10396637;28;20208;-82
2021/11/11 17:36:28;;;;;;;37.83;33.80;;;7.90;99.90;;;;;;10413273;28;20221;-82
2021/11/11 17:41:31;;;;;;;39.80;35.83;;;7.90;99.90;;;;;;10413499;28;20281;-82
2021/11/11 17:46:38;;;;;;;41.77;36.77;;;7.90;99.90;;;;;;10413753;28;20222;-83
2021/11/11 17:51:52;;;;;;;40.37;36.10;;;7.90;99.90;;;;;;10413498;28;20606;-83
2021/11/11 17:56:56;;;;;;;41.27;36.73;;;7.90;99.90;;;;;;10415902;28;20268;-84
2021/11/11 18:02:02;;;;;;;40.97;36.50;;;8.00;99.90;;;;;;10410815;28;20784;-84
2021/11/11 18:07:09;;;;;;;47.23;42.40;;;7.90;99.90;;;;;;10459309;22;20319;-86
2021/11/11 18:12:12;;;;;;;41.47;37.07;;;7.90;99.90;;;;;;10447638;28;20212;-85
2021/11/11 18:17:14;;;;;;;43.93;39.20;;;7.90;99.90;;;;;;10475749;28;20726;-85
2021/11/11 18:22:18;;;;;;;44.53;39.03;;;7.90;99.90;;;;;;10445522;28;20197;-86
2021/11/11 18:27:22;;;;;;;43.93;39.13;;;7.90;99.90;;;;;;10430017;28;20221;-84
2021/11/11 18:32:27;;;;;;;43.63;39.00;;;7.80;99.90;;;;;;10444720;28;20211;-85
2021/11/11 18:37:35;;;;;;;42.43;37.80;;;7.80;99.90;;;;;;10422610;28;20243;-85
2021/11/11 18:42:41;;;;;;;44.40;39.37;;;7.80;99.90;;;;;;10430193;28;20205;-85
2021/11/11 18:47:55;;;;;;;44.83;38.20;;;7.80;99.90;;;;;;10425384;28;20319;-85
2021/11/11 18:53:01;;;;;;;43.67;38.97;;;7.70;99.90;;;;;;10423861;28;20231;-85
2021/11/11 18:58:03;;;;;;;43.73;39.03;;;7.70;99.90;;;;;;10441183;28;20225;-85
2021/11/11 19:03:06;;;;;;;43.80;39.13;;;7.70;99.90;;;;;;10449910;28;20295;-85
2021/11/11 19:08:21;;;;;;;44.20;38.80;;;7.70;99.90;;;;;;10423442;28;20851;-85
2021/11/11 19:13:32;;;;;;;43.27;38.70;;;7.70;99.90;;;;;;10418046;28;20213;-85
2021/11/11 19:18:37;;;;;;;49.90;40.50;;;7.60;99.90;;;;;;10423575;28;20233;-85
2021/11/11 19:23:46;;;;;;;45.73;40.67;;;7.60;99.90;;;;;;10424282;28;20582;-86
2021/11/11 19:29:01;;;;;;;46.27;41.17;;;7.60;99.90;;;;;;10440500;28;20197;-85
2021/11/11 19:34:08;;;;;;;46.93;40.93;;;7.60;99.90;;;;;;10423388;28;20773;-85
2021/11/11 19:39:29;;;;;;;49.30;42.33;;;7.60;99.90;;;;;;10436021;28;20227;-85
2021/11/11 19:55:32;;;;;;;45.50;40.50;;;7.60;99.90;;;;;;10423462;28;20233;-85
2021/11/11 20:11:26;;;;;;;46.90;41.80;;;7.60;99.90;;;;;;10422976;28;20751;-85
2021/11/11 20:16:47;;;;;;;47.87;42.33;;;7.60;99.90;;;;;;10449133;28;20278;-84
2021/11/11 20:38:00;;;;;;;46.27;41.10;;;7.60;99.90;;;;;;10421125;28;20688;-84
2021/11/11 20:59:40;;;;;;;49.63;44.20;;;7.60;99.90;;;;;;10428358;28;20239;-85
2021/11/11 21:04:46;;;;;;;46.53;41.47;;;7.60;99.90;;;;;;10430694;28;20291;-84
2021/11/11 21:15:42;;;;;;;45.73;40.80;;;7.60;99.90;;;;;;10457287;28;20279;-85
2021/11/11 21:20:50;;;;;;;48.40;42.37;;;7.70;99.90;;;;;;10427132;28;20221;-84
2021/11/11 21:25:56;;;;;;;49.90;43.13;;;7.70;99.90;;;;;;10446435;28;20213;-85
2021/11/11 21:31:05;;;;;;;49.57;44.20;;;7.70;99.90;;;;;;10459247;28;20197;-84
2021/11/11 21:36:17;;;;;;;50.00;44.60;;;7.70;99.90;;;;;;10451035;28;20228;-83
2021/11/11 21:41:24;;;;;;;51.20;45.60;;;7.60;99.90;;;;;;10431969;28;20225;-84
2021/11/11 21:46:32;;;;;;;56.53;48.17;;;7.60;99.90;;;;;;10458167;28;20303;-85
2021/11/11 21:51:35;;;;;;;56.03;49.50;;;7.60;99.90;;;;;;10455251;28;20255;-84
2021/11/11 21:57:05;;;;;;;55.27;48.27;;;7.60;99.90;;;;;;10429798;28;20244;-84
2021/11/11 22:02:38;;;;;;;59.50;49.20;;;7.60;99.90;;;;;;10444792;28;20233;-84
2021/11/11 22:24:08;;;;;;;60.60;49.00;;;7.40;99.90;;;;;;10423061;28;20315;-84
2021/11/11 22:29:23;;;;;;;63.63;51.00;;;7.40;99.90;;;;;;10421937;28;20255;-84
2021/11/11 22:34:32;;;;;;;65.53;50.37;;;7.30;99.90;;;;;;10441579;28;20246;-84
2021/11/11 22:39:38;;;;;;;64.27;52.47;;;7.30;99.90;;;;;;10412319;28;20221;-83
2021/11/11 22:44:41;;;;;;;63.90;49.33;;;7.30;99.90;;;;;;10463137;28;20213;-83
2021/11/11 22:49:48;;;;;;;52.67;46.87;;;7.20;99.90;;;;;;10427229;28;20291;-84
2021/11/11 22:54:58;;;;;;;45.90;41.10;;;7.30;99.90;;;;;;10427435;28;20279;-83
2021/11/11 23:00:12;;;;;;;44.57;39.87;;;7.20;99.90;;;;;;10436477;28;20603;-84
2021/11/11 23:05:40;;;;;;;41.27;37.07;;;7.20;99.90;;;;;;10454916;28;20237;-81
2021/11/11 23:32:05;;;;;;;47.03;39.60;;;7.00;99.90;;;;;;10437681;28;20200;-81
2021/11/11 23:37:10;;;;;;;46.97;40.33;;;7.00;99.90;;;;;;10416209;28;20316;-81
2021/11/11 23:42:12;;;;;;;56.20;45.63;;;7.00;99.90;;;;;;10424365;28;20208;-81
2021/11/11 23:47:19;;;;;;;49.33;43.30;;;7.00;99.90;;;;;;10425620;28;20221;-81
2021/11/11 23:52:37;;;;;;;56.47;45.57;;;7.10;99.90;;;;;;10424574;28;20304;-82
